Nearby METAR Reports

 

K1A5 - Macon/Franklin, North Carolina, USA
Distance from station: WSW 16mi, 25km
Updated: Tue, 23-Jul-2019 8:05pm EDT
Clear
Clear
 Wind from calm
Wind: Calm
Temperature: 72°F , 22°C
Dew Point: 57°F , 14°C
Humidity: 61%
Barometer: 30.04 inHg , 1017.3 hPa
Clouds: Clear
Visibility: 10 miles , 16 km
2019/07/24 00:05 K1A5 240005Z AUTO 00000KT 10SM CLR 22/14 A3004 RMK AO2 T02210143
KAVL - Asheville, North Carolina, USA
Distance from station: ENE 36mi, 59km
Updated: Tue, 23-Jul-2019 7:54pm EDT
Clear
Clear
 Wind from NNW
Wind: NNW 8 mph , 13 km/h
Temperature: 72°F , 22°C
Dew Point: 57°F , 14°C
Humidity: 61%
Barometer: 30.01 inHg , 1016.3 hPa
Clouds: Clear
Visibility: 10 miles , 16 km
2019/07/23 23:54 KAVL 232354Z 34007KT 10SM CLR 22/14 A3001 RMK AO2 SLP139 60000 T02170144 10233 20200 53007
 
KRHP - Andrews, North Carolina, USA
Distance from station: WSW 40mi, 64km
Updated: Tue, 23-Jul-2019 8:00pm EDT
Clear
Clear
 Wind from N
Wind: N 3 mph , 6 km/h
Temperature: 70°F , 21°C
Dew Point: 61°F , 16°C
Humidity: 73%
Barometer: 30.00 inHg , 1015.9 hPa
Clouds: Clear
Visibility: 10 miles , 16 km
2019/07/24 00:00 KRHP 240000Z AUTO 35003KT 10SM CLR 21/16 A3000 RMK AO2 T02120163
KLQK - Pickens, South Carolina, USA
Distance from station: SE 42mi, 68km
Updated: Tue, 23-Jul-2019 8:15pm EDT
Clear
Clear
 Wind from ENE
Wind: ENE 7 mph , 11 km/h
Temperature: 75°F , 24°C
Dew Point: 66°F , 19°C
Humidity: 74%
Barometer: 29.94 inHg , 1013.9 hPa
Clouds: Clear
Visibility: 10 miles , 16 km
2019/07/24 00:15 KLQK 240015Z AUTO 07006KT 10SM CLR 24/19 A2994 RMK AO2 T02350185
 
KCEU - Clemson, South Carolina, USA
Distance from station: SSE 46mi, 75km
Updated: Tue, 23-Jul-2019 7:54pm EDT
Mostly cloudy
Mostly cloudy
 Wind from NE
Wind: NE 10 mph , 17 km/h
Temperature: 75°F , 24°C
Dew Point: 61°F , 16°C
Humidity: 61%
Barometer: 29.95 inHg , 1014.2 hPa
Clouds: Mostly cloudy
Visibility: 10 miles , 16 km
Cloud details: Few Clouds 7000 ft
Mostly cloudy 8500 ft
2019/07/23 23:54 KCEU 232354Z AUTO 05009KT 10SM FEW070 BKN085 24/16 A2995 RMK AO2 SLP130 T02440161 10272 20244 51025
KTOC - Toccoa, Georgia, USA
Distance from station: S 49mi, 79km
Updated: Tue, 23-Jul-2019 7:55pm EDT
Rain, Overcast
Rain, Overcast
 Wind from calm
Wind: Calm
Temperature: 70°F , 21°C
Dew Point: 66°F , 19°C
Humidity: 88%
Barometer: 29.95 inHg , 1014.2 hPa
Summary: Rain
Clouds: Overcast
Visibility: 7 miles , 11 km
Cloud details: Partly cloudy 3200 ft
Mostly cloudy 4800 ft
Overcast 5500 ft
2019/07/23 23:55 KTOC 232355Z AUTO 00000KT 7SM RA SCT032 BKN048 OVC055 21/19 A2995 RMK AO2 T02120193 10299 20210